createdAt,value
2023-04-19T00:01:06.226Z,102147.78
2023-04-19T00:03:33.752Z,102145.28
2023-04-19T00:06:01.175Z,102132.63
2023-04-19T00:08:28.433Z,102128.28
2023-04-19T00:10:55.616Z,102129.22
2023-04-19T00:13:22.924Z,102130.16
2023-04-19T00:15:50.363Z,102133.72
2023-04-19T00:18:17.580Z,102131.88
2023-04-19T00:20:45.484Z,102126.53
2023-04-19T00:23:12.700Z,102123.00
2023-04-19T00:25:39.896Z,102121.28
2023-04-19T00:28:07.062Z,102118.59
2023-04-19T00:30:34.472Z,102115.94
2023-04-19T00:33:01.751Z,102117.81
2023-04-19T00:35:29.236Z,102124.13
2023-04-19T00:37:56.441Z,102108.91
2023-04-19T00:40:23.671Z,102107.09
2023-04-19T00:42:50.831Z,102116.09
2023-04-19T00:45:18.042Z,102109.03
2023-04-19T00:47:45.302Z,102107.97
2023-04-19T00:50:13.400Z,102102.53
2023-04-19T00:52:41.145Z,102113.31
2023-04-19T00:55:08.791Z,102100.72
2023-04-19T00:57:36.498Z,102104.59
2023-04-19T01:00:06.702Z,102105.50
2023-04-19T01:02:34.019Z,102104.59
2023-04-19T01:05:10.417Z,102105.28
2023-04-19T01:07:37.668Z,102107.22
2023-04-19T01:10:05.973Z,102109.88
2023-04-19T01:12:33.267Z,102105.56
2023-04-19T01:15:01.472Z,102114.44
2023-04-19T01:17:30.159Z,102110.91
2023-04-19T01:20:06.519Z,102103.06
2023-04-19T01:22:34.160Z,102101.91
2023-04-19T01:25:01.706Z,102105.50
2023-04-19T01:27:28.987Z,102106.53
2023-04-19T01:29:56.304Z,102109.97
2023-04-19T01:32:23.604Z,102102.19
2023-04-19T01:34:52.098Z,102102.88
2023-04-19T01:37:19.296Z,102102.88
2023-04-19T01:39:46.490Z,102099.41
2023-04-19T01:42:13.807Z,102107.38
2023-04-19T01:44:40.984Z,102105.72
2023-04-19T01:47:08.363Z,102102.19
2023-04-19T01:49:35.722Z,102104.78
2023-04-19T01:52:03.009Z,102105.72
2023-04-19T01:54:30.242Z,102098.84
2023-04-19T01:56:57.405Z,102090.53
2023-04-19T01:59:24.677Z,102087.09
2023-04-19T02:01:51.974Z,102093.38
2023-04-19T02:04:21.768Z,102091.72
2023-04-19T02:06:49.106Z,102093.38
2023-04-19T02:09:16.325Z,102095.19
2023-04-19T02:11:43.502Z,102090.81
2023-04-19T02:14:10.771Z,102086.31
2023-04-19T02:16:38.046Z,102094.41
2023-04-19T02:19:05.351Z,102088.19
2023-04-19T02:21:32.576Z,102081.81
2023-04-19T02:23:59.732Z,102093.53
2023-04-19T02:26:26.999Z,102093.66
2023-04-19T02:28:54.338Z,102088.47
2023-04-19T02:31:21.788Z,102093.66
2023-04-19T02:33:49.054Z,102086.66
2023-04-19T02:36:16.295Z,102084.81
2023-04-19T02:38:43.519Z,102089.31
2023-04-19T02:41:10.807Z,102080.50
2023-04-19T02:43:37.998Z,102087.59
2023-04-19T02:46:05.348Z,102087.50
2023-04-19T02:48:32.664Z,102087.84
2023-04-19T02:50:59.906Z,102083.91
2023-04-19T02:53:27.102Z,102080.44
2023-04-19T02:55:54.330Z,102075.94
2023-04-19T02:58:21.502Z,102069.97
2023-04-19T03:00:48.708Z,102076.09
2023-04-19T03:03:16.079Z,102073.53
2023-04-19T03:05:43.313Z,102074.28
2023-04-19T03:08:11.203Z,102070.06
2023-04-19T03:10:38.531Z,102069.09
2023-04-19T03:13:05.721Z,102071.88
2023-04-19T03:15:32.920Z,102068.25
2023-04-19T03:18:00.203Z,102067.50
2023-04-19T03:20:27.420Z,102060.38
2023-04-19T03:22:54.643Z,102061.06
2023-04-19T03:25:21.974Z,102057.66
2023-04-19T03:27:49.611Z,102061.19
2023-04-19T03:30:16.798Z,102050.66
2023-04-19T03:32:44.101Z,102047.13
2023-04-19T03:35:11.391Z,102038.97
2023-04-19T03:37:38.576Z,102044.34
2023-04-19T03:40:06.673Z,102047.19
2023-04-19T03:42:33.838Z,102042.78
2023-04-19T03:45:06.511Z,102032.94
2023-04-19T03:47:34.269Z,102035.72
2023-04-19T03:50:02.506Z,102032.94
2023-04-19T03:52:29.720Z,102032.09
2023-04-19T03:54:56.884Z,102038.41
2023-04-19T03:57:24.118Z,102032.94
2023-04-19T03:59:51.365Z,102028.38
2023-04-19T04:02:19.101Z,102032.09
2023-04-19T04:04:46.616Z,102035.72
2023-04-19T04:07:13.988Z,102029.47
2023-04-19T04:09:41.185Z,102026.03
2023-04-19T04:12:08.453Z,102035.72
2023-04-19T04:14:35.845Z,102035.38
2023-04-19T04:17:03.133Z,102036.91
2023-04-19T04:19:30.514Z,102033.47
2023-04-19T04:21:57.761Z,102028.72
2023-04-19T04:24:24.984Z,102033.28
2023-04-19T04:26:52.141Z,102029.66
2023-04-19T04:29:19.313Z,102044.00
2023-04-19T04:31:46.627Z,102032.31
2023-04-19T04:34:14.360Z,102035.00
2023-04-19T04:36:42.025Z,102035.97
2023-04-19T04:39:11.881Z,102035.97
2023-04-19T04:41:42.099Z,102038.47
2023-04-19T04:44:12.720Z,102033.13
2023-04-19T04:46:40.323Z,102029.47
2023-04-19T04:49:07.539Z,102027.88
2023-04-19T04:51:36.207Z,102028.53
2023-04-19T04:54:05.170Z,102028.59
2023-04-19T04:56:32.640Z,102023.88
2023-04-19T04:58:59.853Z,102024.59
2023-04-19T05:01:27.143Z,102015.53
2023-04-19T05:03:54.459Z,102018.47
2023-04-19T05:06:21.663Z,102012.88
2023-04-19T05:08:48.849Z,102025.50
2023-04-19T05:11:16.439Z,102014.53
2023-04-19T05:13:46.030Z,102016.47
2023-04-19T05:16:13.337Z,102016.16
2023-04-19T05:18:40.696Z,102008.88
2023-04-19T05:21:10.427Z,102024.41
2023-04-19T05:23:38.691Z,102017.09
2023-04-19T05:26:05.994Z,102013.38
2023-04-19T05:28:33.535Z,102014.22
2023-04-19T05:31:00.927Z,102016.84
2023-04-19T05:33:28.187Z,102012.53
2023-04-19T05:35:55.351Z,102010.81
2023-04-19T05:38:22.874Z,102003.00
2023-04-19T05:40:50.125Z,102000.59
2023-04-19T05:43:17.311Z,101997.50
2023-04-19T05:45:44.507Z,101992.50
2023-04-19T05:48:11.720Z,101991.28
2023-04-19T05:50:39.089Z,101984.78
2023-04-19T05:53:06.282Z,101978.56
2023-04-19T05:55:33.497Z,101982.81
2023-04-19T05:58:00.864Z,101980.72
2023-04-19T06:00:28.449Z,101981.56
2023-04-19T06:02:55.768Z,101983.00
2023-04-19T06:05:23.497Z,101982.22
2023-04-19T06:07:55.483Z,101985.56
2023-04-19T06:10:40.368Z,101980.38
2023-04-19T06:13:16.553Z,101984.03
2023-04-19T06:15:43.763Z,101978.66
2023-04-19T06:18:19.556Z,101984.16
2023-04-19T06:20:47.337Z,101986.59
2023-04-19T06:23:15.294Z,101973.94
2023-04-19T06:25:42.792Z,101974.13
2023-04-19T06:28:12.145Z,101977.66
2023-04-19T06:30:39.332Z,101981.38
2023-04-19T06:33:06.486Z,101975.88
2023-04-19T06:35:34.020Z,101971.38
2023-04-19T06:38:01.304Z,101971.59
2023-04-19T06:40:34.476Z,101965.97
2023-04-19T06:43:01.767Z,101957.84
2023-04-19T06:45:29.128Z,101967.22
2023-04-19T06:47:56.532Z,101964.19
2023-04-19T06:50:23.829Z,101958.53
2023-04-19T06:52:51.054Z,101963.44
2023-04-19T06:55:23.624Z,101965.81
2023-04-19T06:57:50.816Z,101955.09
2023-04-19T07:00:18.333Z,101950.50
2023-04-19T07:02:45.772Z,101949.53
2023-04-19T07:05:13.448Z,101950.31
2023-04-19T07:07:41.328Z,101947.44
2023-04-19T07:10:09.649Z,101944.66
2023-04-19T07:12:39.818Z,101933.84
2023-04-19T07:15:07.473Z,101942.75
2023-04-19T07:17:36.214Z,101935.47
2023-04-19T07:20:05.771Z,101932.03
2023-04-19T07:22:33.565Z,101913.16
2023-04-19T07:25:00.849Z,101920.25
2023-04-19T07:27:28.153Z,101924.66
2023-04-19T07:29:55.362Z,101931.66
2023-04-19T07:32:22.649Z,101917.47
2023-04-19T07:34:51.559Z,101911.13
2023-04-19T07:37:18.837Z,101912.88
2023-04-19T07:39:46.037Z,101919.09
2023-04-19T07:42:13.268Z,101928.09
2023-04-19T07:44:40.493Z,101912.88
2023-04-19T07:47:07.725Z,101902.16
2023-04-19T07:49:35.168Z,101901.09
2023-04-19T07:52:03.019Z,101910.00
2023-04-19T07:54:31.310Z,101906.53
2023-04-19T07:56:59.083Z,101901.19
2023-04-19T07:59:26.626Z,101894.84
2023-04-19T08:01:54.007Z,101889.41
2023-04-19T08:04:22.998Z,101884.25
2023-04-19T08:06:53.372Z,101880.78
2023-04-19T08:09:20.638Z,101881.63
2023-04-19T08:11:47.934Z,101878.88
2023-04-19T08:14:26.831Z,101880.78
2023-04-19T08:17:22.116Z,101881.88
2023-04-19T08:19:45.745Z,101863.19
2023-04-19T08:22:13.018Z,101867.69
2023-04-19T08:24:40.191Z,101867.69
2023-04-19T08:27:07.383Z,101873.81
2023-04-19T08:29:34.760Z,101870.38
2023-04-19T08:32:02.093Z,101865.00
2023-04-19T08:34:29.592Z,101858.88
2023-04-19T08:37:04.029Z,101858.88
2023-04-19T08:39:34.184Z,101845.47
2023-04-19T08:42:11.098Z,101845.56
2023-04-19T08:45:09.532Z,101862.50
2023-04-19T08:50:20.571Z,101849.88
2023-04-19T08:53:02.786Z,101851.78
2023-04-19T08:55:47.328Z,101855.44
2023-04-19T08:58:30.794Z,101843.75
2023-04-19T09:01:12.859Z,101843.75
2023-04-19T09:03:59.390Z,101842.78
2023-04-19T09:06:31.323Z,101845.38
2023-04-19T09:11:52.008Z,101832.91
2023-04-19T09:14:21.053Z,101839.16
2023-04-19T09:16:48.253Z,101830.16
2023-04-19T09:19:24.255Z,101820.41
2023-04-19T09:21:54.887Z,101810.72
2023-04-19T09:25:13.904Z,101800.94
2023-04-19T09:27:31.363Z,101798.19
2023-04-19T09:30:00.632Z,101793.59
2023-04-19T09:32:29.073Z,101791.97
2023-04-19T09:34:58.582Z,101775.88
2023-04-19T09:37:51.561Z,101775.88
2023-04-19T09:40:25.886Z,101775.88
2023-04-19T09:48:10.054Z,101776.53
2023-04-19T09:51:00.242Z,101766.56
2023-04-19T09:53:37.150Z,101761.94
2023-04-19T09:56:06.129Z,101772.78
2023-04-19T10:01:14.386Z,101756.78
2023-04-19T10:03:47.675Z,101756.13
2023-04-19T10:06:40.032Z,101761.22
2023-04-19T10:09:11.565Z,101765.69
2023-04-19T10:11:39.254Z,101757.66
2023-04-19T10:14:09.174Z,101750.69
2023-04-19T10:16:37.680Z,101739.00
2023-04-19T10:19:09.909Z,101734.50
2023-04-19T10:21:38.222Z,101726.38
2023-04-19T10:24:05.973Z,101725.59
2023-04-19T10:27:11.420Z,101737.28
2023-04-19T10:29:58.206Z,101725.78
2023-04-19T10:32:30.658Z,101731.16
2023-04-19T10:35:07.972Z,101727.50
2023-04-19T10:37:35.214Z,101717.56
2023-04-19T10:40:02.533Z,101711.41
2023-04-19T10:43:11.373Z,101705.13
2023-04-19T10:45:38.805Z,101700.69
2023-04-19T10:48:06.125Z,101703.28
2023-04-19T10:51:03.381Z,101694.41
2023-04-19T10:53:49.501Z,101701.66
2023-04-19T10:56:21.859Z,101696.31
2023-04-19T10:59:13.079Z,101692.44
2023-04-19T11:01:48.385Z,101703.16
2023-04-19T11:04:16.367Z,101708.84
2023-04-19T11:06:52.774Z,101697.16
2023-04-19T11:09:27.269Z,101704.34
2023-04-19T11:11:58.080Z,101704.44
2023-04-19T11:14:26.368Z,101686.34
2023-04-19T11:16:53.705Z,101682.13
2023-04-19T11:19:20.948Z,101684.16
2023-04-19T11:21:48.733Z,101677.69
2023-04-19T11:24:18.756Z,101693.16
2023-04-19T11:26:47.282Z,101678.34
2023-04-19T11:29:15.098Z,101680.06
2023-04-19T11:31:47.734Z,101687.13
2023-04-19T11:34:15.374Z,101681.31
2023-04-19T11:36:52.577Z,101675.03
2023-04-19T11:39:19.890Z,101676.34
2023-04-19T11:41:49.759Z,101673.94
2023-04-19T11:44:20.525Z,101676.34
2023-04-19T11:47:05.384Z,101672.69
2023-04-19T11:49:33.957Z,101666.72
2023-04-19T11:52:05.545Z,101669.59
2023-04-19T11:54:33.710Z,101666.94
2023-04-19T11:57:03.455Z,101662.34
2023-04-19T11:59:32.233Z,101662.34
2023-04-19T12:02:12.540Z,101666.81
2023-04-19T12:04:43.419Z,101663.41
2023-04-19T12:07:11.174Z,101662.34
2023-04-19T12:09:39.918Z,101660.91
2023-04-19T12:12:07.148Z,101659.00
2023-04-19T12:14:34.364Z,101659.09
2023-04-19T12:17:14.423Z,101645.50
2023-04-19T12:19:48.136Z,101649.88
2023-04-19T12:22:24.146Z,101653.31
2023-04-19T12:24:55.975Z,101649.78
2023-04-19T12:27:25.725Z,101629.28
2023-04-19T12:29:53.022Z,101645.38
2023-04-19T12:32:20.688Z,101631.03
2023-04-19T12:34:47.978Z,101621.16
2023-04-19T12:37:15.185Z,101638.97
2023-04-19T12:39:42.422Z,101632.88
2023-04-19T12:42:09.593Z,101622.16
2023-04-19T12:44:36.817Z,101622.16
2023-04-19T12:47:04.059Z,101621.94
2023-04-19T12:49:31.706Z,101610.25
2023-04-19T12:51:58.974Z,101603.19
2023-04-19T12:54:26.204Z,101600.50
2023-04-19T12:56:53.908Z,101609.47
2023-04-19T12:59:22.112Z,101604.03
2023-04-19T13:01:49.747Z,101595.88
2023-04-19T13:04:17.431Z,101611.09
2023-04-19T13:06:45.588Z,101591.28
2023-04-19T13:09:14.988Z,101587.75
2023-04-19T13:11:42.602Z,101573.50
2023-04-19T13:14:09.879Z,101579.59
2023-04-19T13:16:38.568Z,101575.09
2023-04-19T13:19:06.181Z,101569.84
2023-04-19T13:21:33.411Z,101576.28
2023-04-19T13:24:00.602Z,101559.91
2023-04-19T13:26:27.906Z,101560.09
2023-04-19T13:28:55.139Z,101550.25
2023-04-19T13:31:22.366Z,101555.28
2023-04-19T13:33:49.573Z,101532.66
2023-04-19T13:36:16.879Z,101536.72
2023-04-19T13:38:44.206Z,101529.47
2023-04-19T13:41:11.646Z,101525.03
2023-04-19T13:43:39.033Z,101525.59
2023-04-19T13:46:06.605Z,101519.47
2023-04-19T13:48:33.856Z,101519.16
2023-04-19T13:51:01.093Z,101526.22
2023-04-19T13:53:29.274Z,101511.53
2023-04-19T13:55:56.766Z,101518.75
2023-04-19T13:58:26.969Z,101515.84
2023-04-19T14:00:54.642Z,101514.88
2023-04-19T14:03:23.244Z,101507.69
2023-04-19T14:05:50.891Z,101516.78
2023-04-19T14:08:18.272Z,101511.44
2023-04-19T14:10:45.780Z,101521.28
2023-04-19T14:13:13.167Z,101514.09
2023-04-19T14:15:40.535Z,101514.00
2023-04-19T14:18:07.879Z,101505.22
2023-04-19T14:20:35.389Z,101504.47
2023-04-19T14:23:02.834Z,101499.84
2023-04-19T14:25:30.146Z,101509.63
2023-04-19T14:27:57.686Z,101501.69
2023-04-19T14:30:27.204Z,101506.28
2023-04-19T14:32:55.163Z,101501.81
2023-04-19T14:35:22.492Z,101506.19
2023-04-19T14:37:49.780Z,101510.56
2023-04-19T14:40:18.039Z,101503.50
2023-04-19T14:42:45.318Z,101498.16
2023-04-19T14:45:12.544Z,101492.78
2023-04-19T14:47:39.777Z,101492.78
2023-04-19T14:50:07.585Z,101486.44
2023-04-19T14:52:34.865Z,101485.72
2023-04-19T14:55:02.206Z,101478.19
2023-04-19T14:57:29.526Z,101473.81
2023-04-19T14:59:57.954Z,101461.16
2023-04-19T15:02:55.971Z,101467.25
2023-04-19T15:05:25.544Z,101466.41
2023-04-19T15:07:53.046Z,101461.16
2023-04-19T15:10:20.320Z,101464.56
2023-04-19T15:12:47.507Z,101459.44
2023-04-19T15:15:14.769Z,101459.22
2023-04-19T15:17:42.696Z,101465.00
2023-04-19T15:20:10.084Z,101457.19
2023-04-19T15:22:37.646Z,101465.22
2023-04-19T15:25:05.108Z,101461.69
2023-04-19T15:27:32.444Z,101466.19
2023-04-19T15:29:59.712Z,101471.56
2023-04-19T15:32:27.475Z,101476.91
2023-04-19T15:34:54.884Z,101489.56
2023-04-19T15:37:22.074Z,101497.59
2023-04-19T15:39:50.260Z,101514.56
2023-04-19T15:42:17.567Z,101519.16
2023-04-19T15:44:45.115Z,101536.09
2023-04-19T15:47:12.580Z,101540.59
2023-04-19T15:49:40.637Z,101541.44
2023-04-19T15:52:08.898Z,101533.31
2023-04-19T15:54:37.719Z,101551.75
2023-04-19T15:57:05.080Z,101569.47
2023-04-19T15:59:32.609Z,101559.03
2023-04-19T16:02:00.120Z,101570.72
2023-04-19T16:04:27.557Z,101571.50
2023-04-19T16:06:55.659Z,101562.47
2023-04-19T16:09:23.007Z,101561.72
2023-04-19T16:11:50.809Z,101558.81
2023-04-19T16:14:18.248Z,101573.19
2023-04-19T16:16:45.738Z,101562.56
2023-04-19T16:19:13.151Z,101552.72
2023-04-19T16:21:40.604Z,101548.22
2023-04-19T16:24:08.162Z,101541.25
2023-04-19T16:26:35.741Z,101542.88
2023-04-19T16:29:03.067Z,101538.44
2023-04-19T16:31:30.786Z,101542.00
2023-04-19T16:33:58.278Z,101529.53
2023-04-19T16:36:25.738Z,101524.19
2023-04-19T16:38:53.234Z,101524.19
2023-04-19T16:41:20.707Z,101522.47
2023-04-19T16:43:47.947Z,101521.50
2023-04-19T16:46:15.414Z,101522.59
2023-04-19T16:48:42.955Z,101518.09
2023-04-19T16:51:10.112Z,101512.63
2023-04-19T16:53:37.350Z,101506.28
2023-04-19T16:56:04.658Z,101509.06
2023-04-19T16:58:31.994Z,101505.63
2023-04-19T17:00:59.210Z,101508.31
2023-04-19T17:03:28.464Z,101500.41
2023-04-19T17:05:56.347Z,101495.69
2023-04-19T17:08:23.722Z,101491.94
2023-04-19T17:10:51.007Z,101489.34
2023-04-19T17:13:18.589Z,101483.25
2023-04-19T17:15:46.048Z,101483.13
2023-04-19T17:18:13.400Z,101475.84
2023-04-19T17:20:40.770Z,101475.72
2023-04-19T17:23:08.023Z,101475.84
2023-04-19T17:25:35.262Z,101477.56
2023-04-19T17:28:02.664Z,101475.72
2023-04-19T17:30:30.086Z,101470.38
2023-04-19T17:32:57.570Z,101469.50
2023-04-19T17:35:26.163Z,101473.03
2023-04-19T17:37:53.399Z,101475.72
2023-04-19T17:40:20.876Z,101472.09
2023-04-19T17:42:48.050Z,101465.97
2023-04-19T17:45:16.506Z,101466.97
2023-04-19T17:47:44.376Z,101465.00
2023-04-19T17:50:13.070Z,101466.75
2023-04-19T17:52:40.802Z,101471.22
2023-04-19T17:55:08.614Z,101473.03
2023-04-19T17:57:35.886Z,101466.84
2023-04-19T18:00:06.864Z,101474.03
2023-04-19T18:02:35.048Z,101479.25
2023-04-19T18:05:02.745Z,101484.63
2023-04-19T18:07:30.216Z,101478.63
2023-04-19T18:09:57.428Z,101479.59
2023-04-19T18:12:24.930Z,101483.13
2023-04-19T18:14:52.176Z,101484.19
2023-04-19T18:17:19.557Z,101480.78
2023-04-19T18:19:47.042Z,101483.25
2023-04-19T18:22:14.680Z,101485.16
2023-04-19T18:24:43.724Z,101479.03
2023-04-19T18:27:10.944Z,101487.84
2023-04-19T18:29:38.401Z,101484.41
2023-04-19T18:32:06.267Z,101489.03
2023-04-19T18:34:33.496Z,101486.34
2023-04-19T18:37:02.834Z,101484.63
2023-04-19T18:39:30.029Z,101490.09
2023-04-19T18:41:58.236Z,101487.28
2023-04-19T18:44:49.509Z,101481.94
2023-04-19T18:47:13.055Z,101486.44
2023-04-19T18:49:40.461Z,101481.09
2023-04-19T18:52:07.857Z,101474.03
2023-04-19T18:54:35.200Z,101473.16
2023-04-19T18:57:19.065Z,101472.19
2023-04-19T18:59:49.412Z,101485.72
2023-04-19T19:02:16.853Z,101471.22
2023-04-19T19:07:34.132Z,101477.47
2023-04-19T19:10:18.398Z,101480.13
2023-04-19T19:12:48.759Z,101480.22
2023-04-19T19:15:16.372Z,101476.38
2023-04-19T19:17:48.555Z,101485.16
2023-04-19T19:20:16.970Z,101480.66
2023-04-19T19:22:45.427Z,101483.47
2023-04-19T19:25:13.258Z,101479.94
2023-04-19T19:27:40.666Z,101491.38
2023-04-19T19:30:08.794Z,101491.50
2023-04-19T19:32:36.197Z,101486.44
2023-04-19T19:35:06.405Z,101485.28
2023-04-19T19:37:36.841Z,101484.41
2023-04-19T19:40:10.768Z,101486.34
2023-04-19T19:42:41.657Z,101489.75
2023-04-19T19:45:09.483Z,101486.34
2023-04-19T19:47:43.154Z,101491.06
2023-04-19T19:51:01.035Z,101488.47
2023-04-19T19:53:01.521Z,101491.91
2023-04-19T19:55:30.087Z,101489.34
2023-04-19T20:02:59.027Z,101494.59
2023-04-19T20:05:27.532Z,101497.50
2023-04-19T20:08:10.181Z,101493.41
2023-04-19T20:10:39.341Z,101486.22
2023-04-19T20:13:06.748Z,101494.91
2023-04-19T20:15:37.819Z,101494.69
2023-04-19T20:18:05.620Z,101489.88
2023-04-19T20:20:33.105Z,101483.53
2023-04-19T20:23:00.657Z,101499.81
2023-04-19T20:25:28.103Z,101497.28
2023-04-19T20:27:56.512Z,101501.44
2023-04-19T20:30:23.890Z,101499.63
2023-04-19T20:32:51.316Z,101507.44
2023-04-19T20:35:19.026Z,101504.56
2023-04-19T20:37:47.460Z,101502.09
2023-04-19T20:40:16.265Z,101502.00
2023-04-19T20:42:44.806Z,101492.13
2023-04-19T20:45:14.147Z,101480.56
2023-04-19T20:47:42.357Z,101488.69
2023-04-19T20:50:10.446Z,101487.63
2023-04-19T20:52:37.793Z,101485.06
2023-04-19T20:55:05.554Z,101486.88
2023-04-19T20:57:32.968Z,101486.97
2023-04-19T21:00:00.701Z,101486.97
2023-04-19T21:02:28.618Z,101479.72
2023-04-19T21:04:56.009Z,101494.91
2023-04-19T21:07:23.416Z,101484.59
2023-04-19T21:09:50.841Z,101493.41
2023-04-19T21:12:18.519Z,101486.44
2023-04-19T21:14:49.284Z,101488.59
2023-04-19T21:17:16.928Z,101493.09
2023-04-19T21:19:44.173Z,101485.06
2023-04-19T21:22:11.857Z,101482.38
2023-04-19T21:24:39.357Z,101484.94
2023-04-19T21:27:07.700Z,101487.63
2023-04-19T21:29:35.201Z,101485.91
2023-04-19T21:32:02.858Z,101487.63
2023-04-19T21:34:31.020Z,101482.25
2023-04-19T21:36:58.238Z,101491.06
2023-04-19T21:39:25.593Z,101487.41
2023-04-19T21:41:52.796Z,101492.00
2023-04-19T21:44:20.513Z,101492.56
2023-04-19T21:46:48.525Z,101498.13
2023-04-19T21:49:15.911Z,101492.97
2023-04-19T21:51:43.558Z,101492.97
2023-04-19T21:54:12.800Z,101495.56
2023-04-19T21:56:45.090Z,101494.88
2023-04-19T21:59:15.339Z,101500.91
2023-04-19T22:01:42.927Z,101507.13
2023-04-19T22:04:11.957Z,101500.03
2023-04-19T22:06:39.345Z,101496.41
2023-04-19T22:09:06.521Z,101501.00
2023-04-19T22:11:36.459Z,101500.03
2023-04-19T22:14:03.880Z,101495.66
2023-04-19T22:16:32.713Z,101494.78
2023-04-19T22:19:01.284Z,101502.94
2023-04-19T22:21:28.644Z,101508.41
2023-04-19T22:23:55.837Z,101511.09
2023-04-19T22:26:23.118Z,101496.63
2023-04-19T22:28:50.764Z,101502.84
2023-04-19T22:31:18.237Z,101509.06
2023-04-19T22:33:46.108Z,101502.06
2023-04-19T22:36:13.496Z,101501.22
2023-04-19T22:38:40.694Z,101502.94
2023-04-19T22:41:07.901Z,101494.88
2023-04-19T22:43:35.193Z,101491.91
2023-04-19T22:46:02.412Z,101487.72
2023-04-19T22:48:30.237Z,101493.31
2023-04-19T22:50:57.423Z,101489.31
2023-04-19T22:53:24.790Z,101483.66
2023-04-19T22:55:52.485Z,101478.59
2023-04-19T22:58:20.112Z,101485.78
2023-04-19T23:00:47.375Z,101498.13
2023-04-19T23:03:14.612Z,101492.00
2023-04-19T23:05:41.886Z,101488.38
2023-04-19T23:08:09.400Z,101480.63
2023-04-19T23:10:39.640Z,101476.91
2023-04-19T23:13:06.829Z,101480.75
2023-04-19T23:15:34.413Z,101476.34
2023-04-19T23:18:02.295Z,101474.53
2023-04-19T23:20:30.236Z,101480.75
2023-04-19T23:22:57.832Z,101481.69
2023-04-19T23:25:25.595Z,101487.94
2023-04-19T23:27:52.942Z,101483.44
2023-04-19T23:30:20.621Z,101485.25
2023-04-19T23:32:47.898Z,101479.03
2023-04-19T23:35:15.285Z,101473.78
2023-04-19T23:37:42.507Z,101472.06
2023-04-19T23:40:10.384Z,101469.28
2023-04-19T23:42:38.424Z,101464.03
2023-04-19T23:45:06.666Z,101469.41
2023-04-19T23:47:34.237Z,101466.72
2023-04-19T23:50:01.699Z,101469.47
2023-04-19T23:52:28.940Z,101467.56
2023-04-19T23:54:56.092Z,101456.84
2023-04-19T23:57:23.358Z,101452.22
2023-04-19T23:59:50.856Z,101450.53
